sensor_id;sensor_type;location;lat;lon;timestamp;pressure;altitude;pressure_sealevel;temperature;humidity
73860;BME280;62197;51.632;13.700;2023-02-28T00:00:05;101698.59;;;-0.97;98.44
73860;BME280;62197;51.632;13.700;2023-02-28T00:02:35;101708.63;;;-0.88;98.79
73860;BME280;62197;51.632;13.700;2023-02-28T00:05:00;101680.63;;;-0.98;98.79
73860;BME280;62197;51.632;13.700;2023-02-28T00:07:29;101701.63;;;-0.81;98.29
73860;BME280;62197;51.632;13.700;2023-02-28T00:09:54;101702.19;;;-0.87;98.44
73860;BME280;62197;51.632;13.700;2023-02-28T00:12:19;101697.44;;;-0.95;98.03
73860;BME280;62197;51.632;13.700;2023-02-28T00:14:45;101705.91;;;-0.88;98.38
73860;BME280;62197;51.632;13.700;2023-02-28T00:17:10;101702.25;;;-0.68;98.22
73860;BME280;62197;51.632;13.700;2023-02-28T00:19:35;101699.97;;;-0.63;98.08
73860;BME280;62197;51.632;13.700;2023-02-28T00:22:01;101705.06;;;-0.79;99.04
73860;BME280;62197;51.632;13.700;2023-02-28T00:24:26;101697.94;;;-0.80;100.00
73860;BME280;62197;51.632;13.700;2023-02-28T00:26:52;101692.31;;;-0.98;100.00
73860;BME280;62197;51.632;13.700;2023-02-28T00:29:17;101703.97;;;-1.16;100.00
73860;BME280;62197;51.632;13.700;2023-02-28T00:31:42;101699.09;;;-1.22;100.00
73860;BME280;62197;51.632;13.700;2023-02-28T00:34:07;101709.53;;;-1.08;100.00
73860;BME280;62197;51.632;13.700;2023-02-28T00:36:33;101715.59;;;-0.95;100.00
73860;BME280;62197;51.632;13.700;2023-02-28T00:38:58;101712.28;;;-0.99;100.00
73860;BME280;62197;51.632;13.700;2023-02-28T00:41:23;101714.16;;;-0.99;100.00
73860;BME280;62197;51.632;13.700;2023-02-28T00:43:49;101709.00;;;-0.93;100.00
73860;BME280;62197;51.632;13.700;2023-02-28T00:46:14;101712.34;;;-0.79;100.00
73860;BME280;62197;51.632;13.700;2023-02-28T00:48:39;101704.22;;;-0.79;99.44
73860;BME280;62197;51.632;13.700;2023-02-28T00:51:05;101707.34;;;-0.84;98.74
73860;BME280;62197;51.632;13.700;2023-02-28T00:53:30;101716.63;;;-0.77;99.32
73860;BME280;62197;51.632;13.700;2023-02-28T00:55:57;101717.09;;;-0.72;97.79
73860;BME280;62197;51.632;13.700;2023-02-28T00:58:23;101716.63;;;-0.77;97.40
73860;BME280;62197;51.632;13.700;2023-02-28T01:00:48;101717.63;;;-0.78;98.44
73860;BME280;62197;51.632;13.700;2023-02-28T01:03:15;101715.34;;;-0.73;97.89
73860;BME280;62197;51.632;13.700;2023-02-28T01:05:41;101706.28;;;-0.53;96.28
73860;BME280;62197;51.632;13.700;2023-02-28T01:08:06;101711.41;;;-0.50;95.97
73860;BME280;62197;51.632;13.700;2023-02-28T01:10:32;101707.72;;;-0.49;95.17
73860;BME280;62197;51.632;13.700;2023-02-28T01:12:57;101695.44;;;-0.53;94.52
73860;BME280;62197;51.632;13.700;2023-02-28T01:15:23;101700.56;;;-0.50;93.73
73860;BME280;62197;51.632;13.700;2023-02-28T01:17:48;101701.94;;;-0.74;94.45
73860;BME280;62197;51.632;13.700;2023-02-28T01:20:14;101707.34;;;-0.84;94.97
73860;BME280;62197;51.632;13.700;2023-02-28T01:22:39;101716.44;;;-0.85;96.88
73860;BME280;62197;51.632;13.700;2023-02-28T01:25:05;101703.63;;;-0.83;96.18
73860;BME280;62197;51.632;13.700;2023-02-28T01:27:30;101687.88;;;-0.99;94.26
73860;BME280;62197;51.632;13.700;2023-02-28T01:29:55;101693.31;;;-0.99;93.17
73860;BME280;62197;51.632;13.700;2023-02-28T01:32:21;101695.59;;;-0.94;92.73
73860;BME280;62197;51.632;13.700;2023-02-28T01:34:46;101703.34;;;-0.89;93.25
73860;BME280;62197;51.632;13.700;2023-02-28T01:37:11;101695.91;;;-0.97;94.49
73860;BME280;62197;51.632;13.700;2023-02-28T01:39:37;101696.16;;;-1.00;94.78
73860;BME280;62197;51.632;13.700;2023-02-28T01:42:02;101700.47;;;-0.88;95.06
73860;BME280;62197;51.632;13.700;2023-02-28T01:47:35;101700.31;;;-0.96;95.88
73860;BME280;62197;51.632;13.700;2023-02-28T01:50:04;101683.63;;;-1.01;94.50
73860;BME280;62197;51.632;13.700;2023-02-28T01:52:31;101693.63;;;-0.92;95.18
73860;BME280;62197;51.632;13.700;2023-02-28T01:54:59;101702.47;;;-0.90;94.75
73860;BME280;62197;51.632;13.700;2023-02-28T01:57:29;101698.59;;;-0.97;94.91
73860;BME280;62197;51.632;13.700;2023-02-28T02:00:00;101693.59;;;-1.02;94.87
73860;BME280;62197;51.632;13.700;2023-02-28T02:02:29;101679.44;;;-1.15;94.31
73860;BME280;62197;51.632;13.700;2023-02-28T02:04:59;101684.16;;;-1.07;95.30
73860;BME280;62197;51.632;13.700;2023-02-28T02:07:29;101690.13;;;-1.13;95.49
73860;BME280;62197;51.632;13.700;2023-02-28T02:10:11;101678.13;;;-1.20;95.42
73860;BME280;62197;51.632;13.700;2023-02-28T02:18:30;101685.00;;;-1.16;96.88
73860;BME280;62197;51.632;13.700;2023-02-28T02:21:25;101677.00;;;-1.18;96.20
73860;BME280;62197;51.632;13.700;2023-02-28T02:26:50;101664.47;;;-1.19;97.12
73860;BME280;62197;51.632;13.700;2023-02-28T02:29:36;101668.03;;;-1.18;95.45
73860;BME280;62197;51.632;13.700;2023-02-28T02:34:58;101655.03;;;-1.24;95.94
73860;BME280;62197;51.632;13.700;2023-02-28T02:37:33;101666.59;;;-1.22;95.75
73860;BME280;62197;51.632;13.700;2023-02-28T02:40:12;101665.88;;;-1.24;96.48
73860;BME280;62197;51.632;13.700;2023-02-28T02:47:39;101666.41;;;-1.30;95.97
73860;BME280;62197;51.632;13.700;2023-02-28T02:50:08;101670.09;;;-1.31;96.18
73860;BME280;62197;51.632;13.700;2023-02-28T02:52:39;101679.38;;;-1.34;96.46
73860;BME280;62197;51.632;13.700;2023-02-28T02:55:07;101677.78;;;-1.36;96.12
73860;BME280;62197;51.632;13.700;2023-02-28T02:58:02;101660.38;;;-1.43;95.74
73860;BME280;62197;51.632;13.700;2023-02-28T03:00:31;101669.19;;;-1.41;95.57
73860;BME280;62197;51.632;13.700;2023-02-28T03:02:57;101664.00;;;-1.54;96.18
73860;BME280;62197;51.632;13.700;2023-02-28T03:05:27;101677.69;;;-1.55;96.21
73860;BME280;62197;51.632;13.700;2023-02-28T03:07:55;101667.66;;;-1.64;96.47
73860;BME280;62197;51.632;13.700;2023-02-28T03:10:33;101661.94;;;-1.71;96.37
73860;BME280;62197;51.632;13.700;2023-02-28T03:13:16;101667.16;;;-1.79;96.83
73860;BME280;62197;51.632;13.700;2023-02-28T03:16:07;101675.22;;;-1.89;97.67
73860;BME280;62197;51.632;13.700;2023-02-28T03:19:33;101681.94;;;-2.04;98.85
73860;BME280;62197;51.632;13.700;2023-02-28T03:25:04;101681.06;;;-2.04;99.54
73860;BME280;62197;51.632;13.700;2023-02-28T03:27:41;101675.25;;;-2.20;100.00
73860;BME280;62197;51.632;13.700;2023-02-28T03:30:22;101676.56;;;-2.35;100.00
73860;BME280;62197;51.632;13.700;2023-02-28T03:32:58;101687.88;;;-2.41;100.00
73860;BME280;62197;51.632;13.700;2023-02-28T03:35:33;101681.28;;;-2.48;100.00
73860;BME280;62197;51.632;13.700;2023-02-28T03:41:05;101691.50;;;-2.52;100.00
73860;BME280;62197;51.632;13.700;2023-02-28T03:43:35;101683.41;;;-2.63;100.00
73860;BME280;62197;51.632;13.700;2023-02-28T03:46:08;101688.31;;;-2.57;100.00
73860;BME280;62197;51.632;13.700;2023-02-28T03:48:44;101686.25;;;-2.64;100.00
73860;BME280;62197;51.632;13.700;2023-02-28T03:51:13;101691.56;;;-2.74;100.00
73860;BME280;62197;51.632;13.700;2023-02-28T03:53:42;101694.84;;;-2.70;100.00
73860;BME280;62197;51.632;13.700;2023-02-28T03:56:31;101696.00;;;-2.84;100.00
73860;BME280;62197;51.632;13.700;2023-02-28T03:59:04;101706.09;;;-2.97;100.00
73860;BME280;62197;51.632;13.700;2023-02-28T04:01:35;101687.44;;;-3.11;100.00
73860;BME280;62197;51.632;13.700;2023-02-28T04:04:03;101695.44;;;-3.21;100.00
73860;BME280;62197;51.632;13.700;2023-02-28T04:06:31;101705.63;;;-3.24;100.00
73860;BME280;62197;51.632;13.700;2023-02-28T04:08:57;101711.28;;;-3.16;100.00
73860;BME280;62197;51.632;13.700;2023-02-28T04:11:28;101700.34;;;-3.26;100.00
73860;BME280;62197;51.632;13.700;2023-02-28T04:13:56;101702.06;;;-3.36;100.00
73860;BME280;62197;51.632;13.700;2023-02-28T04:16:22;101698.50;;;-3.36;100.00
73860;BME280;62197;51.632;13.700;2023-02-28T04:18:47;101710.91;;;-3.34;100.00
73860;BME280;62197;51.632;13.700;2023-02-28T04:21:13;101690.88;;;-3.09;100.00
73860;BME280;62197;51.632;13.700;2023-02-28T04:23:38;101700.19;;;-2.91;100.00
73860;BME280;62197;51.632;13.700;2023-02-28T04:26:04;101696.97;;;-2.74;100.00
73860;BME280;62197;51.632;13.700;2023-02-28T04:28:30;101698.16;;;-2.67;100.00
73860;BME280;62197;51.632;13.700;2023-02-28T04:30:58;101724.16;;;-2.55;100.00
73860;BME280;62197;51.632;13.700;2023-02-28T04:33:24;101707.22;;;-2.46;100.00
73860;BME280;62197;51.632;13.700;2023-02-28T04:35:58;101710.38;;;-2.41;100.00
73860;BME280;62197;51.632;13.700;2023-02-28T04:38:24;101710.97;;;-2.37;100.00
73860;BME280;62197;51.632;13.700;2023-02-28T04:40:49;101701.03;;;-2.37;100.00
73860;BME280;62197;51.632;13.700;2023-02-28T04:43:15;101701.88;;;-2.36;100.00
73860;BME280;62197;51.632;13.700;2023-02-28T04:45:40;101711.69;;;-2.35;100.00
73860;BME280;62197;51.632;13.700;2023-02-28T04:48:05;101708.88;;;-2.34;100.00
73860;BME280;62197;51.632;13.700;2023-02-28T04:50:31;101692.97;;;-2.48;100.00
73860;BME280;62197;51.632;13.700;2023-02-28T04:52:56;101713.81;;;-2.39;100.00
73860;BME280;62197;51.632;13.700;2023-02-28T04:55:21;101703.50;;;-2.45;100.00
73860;BME280;62197;51.632;13.700;2023-02-28T04:57:47;101707.22;;;-2.46;100.00
73860;BME280;62197;51.632;13.700;2023-02-28T05:00:13;101710.06;;;-1.74;100.00
73860;BME280;62197;51.632;13.700;2023-02-28T05:02:41;101713.91;;;-2.09;100.00
73860;BME280;62197;51.632;13.700;2023-02-28T05:05:07;101701.13;;;-2.07;100.00
73860;BME280;62197;51.632;13.700;2023-02-28T05:07:32;101696.16;;;-2.22;100.00
73860;BME280;62197;51.632;13.700;2023-02-28T05:09:58;101705.97;;;-2.53;100.00
73860;BME280;62197;51.632;13.700;2023-02-28T05:12:23;101711.69;;;-2.78;100.00
73860;BME280;62197;51.632;13.700;2023-02-28T05:14:48;101701.69;;;-3.09;100.00
73860;BME280;62197;51.632;13.700;2023-02-28T05:17:14;101700.94;;;-3.11;100.00
73860;BME280;62197;51.632;13.700;2023-02-28T05:19:39;101710.28;;;-3.26;100.00
73860;BME280;62197;51.632;13.700;2023-02-28T05:22:04;101709.69;;;-3.30;100.00
73860;BME280;62197;51.632;13.700;2023-02-28T05:24:30;101719.47;;;-3.40;100.00
73860;BME280;62197;51.632;13.700;2023-02-28T05:26:55;101719.59;;;-3.41;100.00
73860;BME280;62197;51.632;13.700;2023-02-28T05:29:21;101714.69;;;-3.36;100.00
73860;BME280;62197;51.632;13.700;2023-02-28T05:31:46;101719.59;;;-3.41;100.00
73860;BME280;62197;51.632;13.700;2023-02-28T05:34:11;101723.41;;;-3.55;100.00
73860;BME280;62197;51.632;13.700;2023-02-28T05:36:38;101728.13;;;-3.70;100.00
73860;BME280;62197;51.632;13.700;2023-02-28T05:39:05;101722.25;;;-3.75;100.00
73860;BME280;62197;51.632;13.700;2023-02-28T05:41:32;101726.16;;;-3.79;100.00
73860;BME280;62197;51.632;13.700;2023-02-28T05:43:57;101732.56;;;-3.80;100.00
73860;BME280;62197;51.632;13.700;2023-02-28T05:46:23;101735.13;;;-3.89;100.00
73860;BME280;62197;51.632;13.700;2023-02-28T05:48:49;101739.13;;;-3.95;100.00
73860;BME280;62197;51.632;13.700;2023-02-28T05:51:14;101738.88;;;-4.03;100.00
73860;BME280;62197;51.632;13.700;2023-02-28T05:53:39;101729.53;;;-3.99;100.00
73860;BME280;62197;51.632;13.700;2023-02-28T05:56:05;101742.13;;;-3.76;100.00
73860;BME280;62197;51.632;13.700;2023-02-28T05:58:30;101747.16;;;-3.71;100.00
73860;BME280;62197;51.632;13.700;2023-02-28T06:00:57;101757.34;;;-3.63;100.00
73860;BME280;62197;51.632;13.700;2023-02-28T06:03:23;101762.38;;;-3.70;100.00
73860;BME280;62197;51.632;13.700;2023-02-28T06:05:48;101759.88;;;-3.84;100.00
73860;BME280;62197;51.632;13.700;2023-02-28T06:08:13;101760.69;;;-3.95;100.00
73860;BME280;62197;51.632;13.700;2023-02-28T06:10:39;101759.44;;;-4.02;100.00
73860;BME280;62197;51.632;13.700;2023-02-28T06:13:04;101757.22;;;-4.08;100.00
73860;BME280;62197;51.632;13.700;2023-02-28T06:15:30;101766.03;;;-4.06;100.00
73860;BME280;62197;51.632;13.700;2023-02-28T06:17:56;101764.38;;;-3.96;100.00
73860;BME280;62197;51.632;13.700;2023-02-28T06:20:23;101759.84;;;-3.95;100.00
73860;BME280;62197;51.632;13.700;2023-02-28T06:22:48;101769.75;;;-3.96;100.00
73860;BME280;62197;51.632;13.700;2023-02-28T06:25:15;101774.44;;;-3.87;100.00
73860;BME280;62197;51.632;13.700;2023-02-28T06:27:41;101763.19;;;-3.81;100.00
73860;BME280;62197;51.632;13.700;2023-02-28T06:30:07;101764.44;;;-3.74;100.00
73860;BME280;62197;51.632;13.700;2023-02-28T06:32:32;101761.16;;;-3.66;100.00
73860;BME280;62197;51.632;13.700;2023-02-28T06:34:57;101776.41;;;-3.43;100.00
73860;BME280;62197;51.632;13.700;2023-02-28T06:37:23;101781.56;;;-3.40;100.00
73860;BME280;62197;51.632;13.700;2023-02-28T06:39:51;101778.75;;;-3.27;100.00
73860;BME280;62197;51.632;13.700;2023-02-28T06:42:16;101780.09;;;-3.22;100.00
73860;BME280;62197;51.632;13.700;2023-02-28T06:44:42;101790.66;;;-3.08;100.00
73860;BME280;62197;51.632;13.700;2023-02-28T06:47:08;101786.50;;;-3.01;100.00
73860;BME280;62197;51.632;13.700;2023-02-28T06:49:34;101788.59;;;-2.93;100.00
73860;BME280;62197;51.632;13.700;2023-02-28T06:52:00;101784.03;;;-2.93;100.00
73860;BME280;62197;51.632;13.700;2023-02-28T06:54:25;101791.03;;;-2.79;100.00
73860;BME280;62197;51.632;13.700;2023-02-28T06:56:50;101792.50;;;-2.75;100.00
73860;BME280;62197;51.632;13.700;2023-02-28T06:59:16;101788.31;;;-2.68;100.00
73860;BME280;62197;51.632;13.700;2023-02-28T07:01:42;101785.84;;;-2.60;100.00
73860;BME280;62197;51.632;13.700;2023-02-28T07:04:07;101783.63;;;-2.55;100.00
73860;BME280;62197;51.632;13.700;2023-02-28T07:06:32;101795.13;;;-2.42;100.00
73860;BME280;62197;51.632;13.700;2023-02-28T07:08:58;101791.94;;;-2.36;99.61
73860;BME280;62197;51.632;13.700;2023-02-28T07:11:25;101792.88;;;-2.26;98.21
73860;BME280;62197;51.632;13.700;2023-02-28T07:13:55;101804.19;;;-1.57;98.30
73860;BME280;62197;51.632;13.700;2023-02-28T07:16:22;101802.13;;;0.53;100.00
73860;BME280;62197;51.632;13.700;2023-02-28T07:18:48;101802.47;;;0.96;91.44
73860;BME280;62197;51.632;13.700;2023-02-28T07:21:14;101800.28;;;-0.04;88.30
73860;BME280;62197;51.632;13.700;2023-02-28T07:23:39;101820.72;;;-0.49;94.03
73860;BME280;62197;51.632;13.700;2023-02-28T07:26:05;101811.13;;;-0.63;90.37
73860;BME280;62197;51.632;13.700;2023-02-28T07:28:31;101804.56;;;0.18;89.85
73860;BME280;62197;51.632;13.700;2023-02-28T07:30:57;101813.53;;;0.66;96.83
73860;BME280;62197;51.632;13.700;2023-02-28T07:33:22;101811.38;;;0.88;81.82
73860;BME280;62197;51.632;13.700;2023-02-28T07:35:49;101815.63;;;0.91;87.12
73860;BME280;62197;51.632;13.700;2023-02-28T07:38:14;101812.66;;;1.31;82.58
73860;BME280;62197;51.632;13.700;2023-02-28T07:40:39;101812.72;;;1.12;86.62
73860;BME280;62197;51.632;13.700;2023-02-28T07:43:05;101810.28;;;1.09;81.71
73860;BME280;62197;51.632;13.700;2023-02-28T07:45:31;101812.41;;;1.78;86.18
73860;BME280;62197;51.632;13.700;2023-02-28T07:47:59;101815.34;;;1.04;79.45
73860;BME280;62197;51.632;13.700;2023-02-28T07:50:24;101813.16;;;0.23;81.16
73860;BME280;62197;51.632;13.700;2023-02-28T07:52:50;101817.00;;;1.24;83.49
73860;BME280;62197;51.632;13.700;2023-02-28T07:55:15;101820.34;;;1.08;77.78
73860;BME280;62197;51.632;13.700;2023-02-28T07:57:42;101824.69;;;0.72;79.16
73860;BME280;62197;51.632;13.700;2023-02-28T08:00:09;101821.97;;;1.28;77.43
73860;BME280;62197;51.632;13.700;2023-02-28T08:02:35;101816.13;;;1.23;85.69
73860;BME280;62197;51.632;13.700;2023-02-28T08:05:01;101817.84;;;1.51;77.05
73860;BME280;62197;51.632;13.700;2023-02-28T08:07:26;101823.19;;;2.15;71.46
73860;BME280;62197;51.632;13.700;2023-02-28T08:09:52;101818.88;;;2.40;74.15
73860;BME280;62197;51.632;13.700;2023-02-28T08:12:17;101810.91;;;2.29;67.56
73860;BME280;62197;51.632;13.700;2023-02-28T08:14:43;101818.38;;;1.92;72.49
73860;BME280;62197;51.632;13.700;2023-02-28T08:17:09;101813.72;;;1.47;73.72
73860;BME280;62197;51.632;13.700;2023-02-28T08:19:35;101816.16;;;1.77;69.90
73860;BME280;62197;51.632;13.700;2023-02-28T08:22:00;101819.78;;;1.41;70.98
73860;BME280;62197;51.632;13.700;2023-02-28T08:24:26;101818.66;;;1.34;69.15
73860;BME280;62197;51.632;13.700;2023-02-28T08:26:51;101822.16;;;1.17;68.07
73860;BME280;62197;51.632;13.700;2023-02-28T08:29:16;101815.81;;;1.26;67.92
73860;BME280;62197;51.632;13.700;2023-02-28T08:31:42;101817.22;;;1.30;66.78
73860;BME280;62197;51.632;13.700;2023-02-28T08:34:13;101814.75;;;1.46;66.82
73860;BME280;62197;51.632;13.700;2023-02-28T08:36:39;101830.03;;;1.47;65.85
73860;BME280;62197;51.632;13.700;2023-02-28T08:39:05;101822.41;;;1.60;65.74
73860;BME280;62197;51.632;13.700;2023-02-28T08:41:30;101815.25;;;1.59;65.62
73860;BME280;62197;51.632;13.700;2023-02-28T08:43:56;101819.59;;;1.79;66.43
73860;BME280;62197;51.632;13.700;2023-02-28T08:46:21;101820.78;;;1.95;63.73
73860;BME280;62197;51.632;13.700;2023-02-28T08:48:47;101821.53;;;1.87;61.84
73860;BME280;62197;51.632;13.700;2023-02-28T08:51:18;101820.38;;;1.90;62.69
73860;BME280;62197;51.632;13.700;2023-02-28T08:53:47;101811.91;;;1.93;62.24
73860;BME280;62197;51.632;13.700;2023-02-28T08:56:15;101826.41;;;2.11;62.75
73860;BME280;62197;51.632;13.700;2023-02-28T08:58:42;101820.00;;;2.02;61.15
73860;BME280;62197;51.632;13.700;2023-02-28T09:01:11;101826.53;;;2.09;60.37
73860;BME280;62197;51.632;13.700;2023-02-28T09:03:38;101816.22;;;2.13;61.03
73860;BME280;62197;51.632;13.700;2023-02-28T09:06:04;101826.41;;;2.28;58.80
73860;BME280;62197;51.632;13.700;2023-02-28T09:08:30;101811.31;;;2.34;58.49
73860;BME280;62197;51.632;13.700;2023-02-28T09:10:56;101830.38;;;2.34;59.34
73860;BME280;62197;51.632;13.700;2023-02-28T09:13:23;101813.63;;;2.46;58.73
73860;BME280;62197;51.632;13.700;2023-02-28T09:15:49;101824.53;;;2.64;59.11
73860;BME280;62197;51.632;13.700;2023-02-28T09:18:14;101834.72;;;2.62;58.20
73860;BME280;62197;51.632;13.700;2023-02-28T09:20:40;101820.47;;;2.50;57.43
73860;BME280;62197;51.632;13.700;2023-02-28T09:23:07;101824.00;;;2.43;57.06
73860;BME280;62197;51.632;13.700;2023-02-28T09:25:33;101826.09;;;2.49;57.64
73860;BME280;62197;51.632;13.700;2023-02-28T09:27:58;101826.19;;;2.57;59.00
73860;BME280;62197;51.632;13.700;2023-02-28T09:30:23;101815.56;;;2.54;56.46
73860;BME280;62197;51.632;13.700;2023-02-28T09:32:49;101824.91;;;2.69;55.35
73860;BME280;62197;51.632;13.700;2023-02-28T09:35:20;101821.16;;;2.70;54.83
73860;BME280;62197;51.632;13.700;2023-02-28T09:37:50;101817.50;;;2.61;56.90
73860;BME280;62197;51.632;13.700;2023-02-28T09:40:20;101824.34;;;2.65;55.32
73860;BME280;62197;51.632;13.700;2023-02-28T09:42:49;101821.59;;;2.57;57.00
73860;BME280;62197;51.632;13.700;2023-02-28T09:45:23;101822.56;;;2.74;54.87
73860;BME280;62197;51.632;13.700;2023-02-28T09:47:52;101821.25;;;2.60;55.81
73860;BME280;62197;51.632;13.700;2023-02-28T09:50:41;101823.28;;;2.58;56.73
73860;BME280;62197;51.632;13.700;2023-02-28T09:53:15;101810.13;;;2.54;56.34
73860;BME280;62197;51.632;13.700;2023-02-28T09:55:49;101819.63;;;2.50;57.07
73860;BME280;62197;51.632;13.700;2023-02-28T09:58:28;101825.28;;;2.74;57.37
73860;BME280;62197;51.632;13.700;2023-02-28T10:01:01;101821.59;;;2.83;55.46
73860;BME280;62197;51.632;13.700;2023-02-28T10:03:33;101822.94;;;2.79;56.98
73860;BME280;62197;51.632;13.700;2023-02-28T10:06:14;101814.94;;;3.03;56.04
73860;BME280;62197;51.632;13.700;2023-02-28T10:09:12;101825.56;;;3.14;55.18
73860;BME280;62197;51.632;13.700;2023-02-28T10:11:39;101824.53;;;3.07;56.31
73860;BME280;62197;51.632;13.700;2023-02-28T10:14:13;101820.66;;;3.18;55.04
73860;BME280;62197;51.632;13.700;2023-02-28T10:22:00;101816.91;;;2.93;56.66
73860;BME280;62197;51.632;13.700;2023-02-28T10:24:42;101814.13;;;2.85;55.22
73860;BME280;62197;51.632;13.700;2023-02-28T10:27:16;101823.41;;;2.92;55.64
73860;BME280;62197;51.632;13.700;2023-02-28T10:29:44;101815.94;;;3.02;55.09
73860;BME280;62197;51.632;13.700;2023-02-28T10:32:14;101814.88;;;2.95;55.33
73860;BME280;62197;51.632;13.700;2023-02-28T10:34:40;101809.72;;;3.43;54.17
73860;BME280;62197;51.632;13.700;2023-02-28T10:37:05;101802.75;;;3.91;53.48
73860;BME280;62197;51.632;13.700;2023-02-28T10:39:44;101804.56;;;4.56;51.82
73860;BME280;62197;51.632;13.700;2023-02-28T10:42:24;101807.28;;;4.96;51.09
73860;BME280;62197;51.632;13.700;2023-02-28T10:47:48;101791.06;;;5.03;49.22
73860;BME280;62197;51.632;13.700;2023-02-28T10:50:31;101785.97;;;5.38;48.29
73860;BME280;62197;51.632;13.700;2023-02-28T10:53:14;101788.06;;;5.75;47.65
73860;BME280;62197;51.632;13.700;2023-02-28T10:55:41;101786.94;;;5.62;47.77
73860;BME280;62197;51.632;13.700;2023-02-28T10:58:20;101795.06;;;5.86;47.86
73860;BME280;62197;51.632;13.700;2023-02-28T11:00:46;101784.16;;;5.70;47.06
73860;BME280;62197;51.632;13.700;2023-02-28T11:03:25;101806.31;;;5.99;46.48
73860;BME280;62197;51.632;13.700;2023-02-28T11:05:50;101790.75;;;6.22;47.04
73860;BME280;62197;51.632;13.700;2023-02-28T11:08:16;101797.00;;;7.13;44.57
73860;BME280;62197;51.632;13.700;2023-02-28T11:10:47;101789.50;;;6.92;44.64
73860;BME280;62197;51.632;13.700;2023-02-28T11:13:20;101794.31;;;7.27;44.62
73860;BME280;62197;51.632;13.700;2023-02-28T11:15:55;101802.81;;;7.62;44.01
73860;BME280;62197;51.632;13.700;2023-02-28T11:21:27;101788.63;;;7.29;42.98
73860;BME280;62197;51.632;13.700;2023-02-28T11:24:04;101782.63;;;8.34;40.85
73860;BME280;62197;51.632;13.700;2023-02-28T11:26:42;101778.56;;;7.80;40.95
73860;BME280;62197;51.632;13.700;2023-02-28T11:29:20;101776.97;;;7.56;43.39
73860;BME280;62197;51.632;13.700;2023-02-28T11:32:26;101789.94;;;8.27;40.16
73860;BME280;62197;51.632;13.700;2023-02-28T11:35:10;101777.97;;;7.99;42.01
73860;BME280;62197;51.632;13.700;2023-02-28T11:37:39;101783.91;;;8.38;41.41
73860;BME280;62197;51.632;13.700;2023-02-28T11:40:12;101790.28;;;9.64;39.22
73860;BME280;62197;51.632;13.700;2023-02-28T11:42:50;101776.13;;;9.39;38.94
73860;BME280;62197;51.632;13.700;2023-02-28T11:46:12;101770.59;;;6.97;43.52
73860;BME280;62197;51.632;13.700;2023-02-28T11:48:43;101765.78;;;7.72;40.34
73860;BME280;62197;51.632;13.700;2023-02-28T11:51:15;101768.66;;;8.00;41.67
73860;BME280;62197;51.632;13.700;2023-02-28T11:56:44;101775.22;;;9.04;45.01
73860;BME280;62197;51.632;13.700;2023-02-28T12:10:26;101752.06;;;11.91;34.75
73860;BME280;62197;51.632;13.700;2023-02-28T12:15:52;101756.88;;;11.32;39.15
73860;BME280;62197;51.632;13.700;2023-02-28T12:18:55;101746.03;;;12.01;36.94
73860;BME280;62197;51.632;13.700;2023-02-28T12:26:54;101747.50;;;11.33;35.34
73860;BME280;62197;51.632;13.700;2023-02-28T12:29:33;101729.72;;;10.63;35.18
73860;BME280;62197;51.632;13.700;2023-02-28T12:34:47;101737.09;;;11.41;35.23
73860;BME280;62197;51.632;13.700;2023-02-28T12:37:19;101732.25;;;9.38;35.39
73860;BME280;62197;51.632;13.700;2023-02-28T12:39:53;101724.41;;;9.35;40.63
73860;BME280;62197;51.632;13.700;2023-02-28T12:42:27;101727.56;;;11.18;36.51
73860;BME280;62197;51.632;13.700;2023-02-28T12:45:39;101728.22;;;11.07;33.08
73860;BME280;62197;51.632;13.700;2023-02-28T12:47:52;101720.09;;;10.20;35.92
73860;BME280;62197;51.632;13.700;2023-02-28T12:50:21;101720.13;;;11.12;35.23
73860;BME280;62197;51.632;13.700;2023-02-28T12:53:06;101715.56;;;11.50;32.54
73860;BME280;62197;51.632;13.700;2023-02-28T12:58:24;101711.31;;;11.54;34.27
73860;BME280;62197;51.632;13.700;2023-02-28T13:03:35;101710.25;;;9.51;37.16
73860;BME280;62197;51.632;13.700;2023-02-28T13:11:29;101704.09;;;12.41;34.12
73860;BME280;62197;51.632;13.700;2023-02-28T13:14:01;101705.28;;;9.74;35.43
73860;BME280;62197;51.632;13.700;2023-02-28T13:16:27;101694.69;;;10.83;35.51
73860;BME280;62197;51.632;13.700;2023-02-28T13:19:09;101690.97;;;12.80;32.48
73860;BME280;62197;51.632;13.700;2023-02-28T13:21:42;101694.44;;;11.05;33.26
73860;BME280;62197;51.632;13.700;2023-02-28T13:24:09;101701.22;;;10.43;35.20
73860;BME280;62197;51.632;13.700;2023-02-28T13:42:35;101687.47;;;11.66;32.20
73860;BME280;62197;51.632;13.700;2023-02-28T13:47:31;101677.00;;;9.12;36.37
73860;BME280;62197;51.632;13.700;2023-02-28T13:55:35;101677.84;;;11.75;32.81
73860;BME280;62197;51.632;13.700;2023-02-28T14:06:32;101662.91;;;8.93;36.61
73860;BME280;62197;51.632;13.700;2023-02-28T14:09:21;101654.06;;;9.04;37.55
73860;BME280;62197;51.632;13.700;2023-02-28T14:11:48;101657.75;;;11.48;33.93
73860;BME280;62197;51.632;13.700;2023-02-28T14:17:02;101657.94;;;12.60;31.44
73860;BME280;62197;51.632;13.700;2023-02-28T14:19:30;101647.25;;;11.06;32.89
73860;BME280;62197;51.632;13.700;2023-02-28T14:27:32;101656.44;;;12.82;32.10
73860;BME280;62197;51.632;13.700;2023-02-28T14:32:54;101658.09;;;12.40;33.24
73860;BME280;62197;51.632;13.700;2023-02-28T14:35:34;101656.22;;;12.59;31.40
73860;BME280;62197;51.632;13.700;2023-02-28T14:38:06;101645.16;;;10.95;32.67
73860;BME280;62197;51.632;13.700;2023-02-28T14:40:38;101648.53;;;11.74;33.12
73860;BME280;62197;51.632;13.700;2023-02-28T14:43:06;101630.13;;;12.73;30.33
73860;BME280;62197;51.632;13.700;2023-02-28T14:45:33;101645.63;;;10.46;35.58
73860;BME280;62197;51.632;13.700;2023-02-28T14:48:02;101643.44;;;10.09;36.11